Annapolis, California
Current Conditions -  °F | °C
As of 7:56 PM on Friday 28 Nov 2014 (Local Time) from KUKI Reporting Station
Light Rain Light Rain  
Wind Chill: 12°   Ceiling: 1000
Heat Index: 12°   Visibility: 4mi
Dew Point: 11°   Wind: 0mph
Humidity: 93%   Direction: NA
Pressure: 29.83"   Gusts: NA
Location:  38.71°N, 123.35°W
Report Text: KUKI 290356Z AUTO 00000KT 4SM -RA BR BKN010 OVC015 12/11 A2983 RMK AO2 SLP100 P0003 T01220111
Loading
Personal Weather Stations






























Interactive Weather Map New forecast layout! Learn more

10-Day Weather Forecast

Advertisements
Track Severe Weather on mobile